createdAt,value
2022-11-07T00:01:16.625Z,1002.67
2022-11-07T00:11:01.412Z,1002.60
2022-11-07T00:26:01.813Z,1002.66
2022-11-07T00:41:02.085Z,1002.56
2022-11-07T00:51:01.662Z,1002.41
2022-11-07T01:06:02.161Z,1002.57
2022-11-07T01:21:07.114Z,1002.55
2022-11-07T01:26:06.779Z,1002.51
2022-11-07T01:41:01.907Z,1002.46
2022-11-07T01:56:02.277Z,1002.47
2022-11-07T02:01:06.508Z,1002.47
2022-11-07T02:11:01.832Z,1002.43
2022-11-07T02:16:01.667Z,1002.30
2022-11-07T02:26:01.666Z,1002.26
2022-11-07T02:31:01.507Z,1002.26
2022-11-07T02:41:03.057Z,1002.20
2022-11-07T02:46:02.424Z,1002.20
2022-11-07T02:56:01.569Z,1002.16
2022-11-07T03:01:01.448Z,1002.16
2022-11-07T03:06:01.675Z,1002.18
2022-11-07T03:16:02.111Z,1002.22
2022-11-07T03:26:01.605Z,1002.12
2022-11-07T03:36:01.857Z,1002.08
2022-11-07T03:51:01.766Z,1002.04
2022-11-07T03:56:01.516Z,1002.12
2022-11-07T04:11:01.596Z,1002.04
2022-11-07T04:26:01.621Z,1002.01
2022-11-07T04:41:02.108Z,1002.08
2022-11-07T04:56:01.769Z,1002.30
2022-11-07T05:11:01.808Z,1002.32
2022-11-07T05:26:01.996Z,1002.53
2022-11-07T05:41:01.654Z,1002.50
2022-11-07T05:56:01.608Z,1002.68
2022-11-07T06:11:01.605Z,1002.72
2022-11-07T06:26:01.456Z,1002.78
2022-11-07T06:31:01.545Z,1002.78
2022-11-07T06:47:01.545Z,1002.96
2022-11-07T07:02:01.539Z,1003.08
2022-11-07T07:17:01.694Z,1003.31
2022-11-07T07:32:01.456Z,1003.48
2022-11-07T07:42:03.068Z,1003.56
2022-11-07T07:57:01.302Z,1003.44
2022-11-07T08:12:01.491Z,1003.67
2022-11-07T08:27:01.304Z,1003.71
2022-11-07T08:32:01.397Z,1003.70
2022-11-07T08:37:01.268Z,1003.70
2022-11-07T08:42:01.513Z,1003.82
2022-11-07T08:47:08.663Z,1003.82
2022-11-07T08:53:03.431Z,1003.89
2022-11-07T09:25:06.658Z,1004.15
2022-11-07T09:30:01.719Z,1004.15
2022-11-07T09:40:01.434Z,1004.20
2022-11-07T09:45:01.613Z,1004.24
2022-11-07T09:55:01.766Z,1004.25
2022-11-07T10:00:03.196Z,1004.25
2022-11-07T10:05:01.640Z,1004.33
2022-11-07T10:15:01.600Z,1004.44
2022-11-07T10:30:01.754Z,1004.57
2022-11-07T10:35:01.545Z,1004.59
2022-11-07T10:45:02.078Z,1004.55
2022-11-07T11:00:03.476Z,1004.74
2022-11-07T11:15:02.540Z,1004.67
2022-11-07T11:20:01.890Z,1004.67
2022-11-07T11:30:01.481Z,1004.69
2022-11-07T11:40:01.618Z,1004.69
2022-11-07T11:45:02.195Z,1004.78
2022-11-07T11:50:01.470Z,1004.78
2022-11-07T11:55:01.450Z,1004.66
2022-11-07T12:00:02.887Z,1004.66
2022-11-07T12:05:16.320Z,1004.80
2022-11-07T12:15:01.567Z,1004.91
2022-11-07T12:20:01.615Z,1004.91
2022-11-07T12:30:01.510Z,1004.95
2022-11-07T12:45:01.562Z,1005.09
2022-11-07T13:00:03.793Z,1005.04
2022-11-07T13:05:02.677Z,1005.04
2022-11-07T13:21:02.108Z,1005.08
2022-11-07T13:31:12.781Z,1005.16
2022-11-07T13:46:01.630Z,1005.30
2022-11-07T13:51:01.663Z,1005.30
2022-11-07T13:56:01.833Z,1005.44
2022-11-07T14:06:01.542Z,1005.58
2022-11-07T14:16:01.775Z,1005.62
2022-11-07T14:21:01.523Z,1005.62
2022-11-07T14:31:01.657Z,1005.78
2022-11-07T15:01:01.736Z,1006.07
2022-11-07T15:16:01.545Z,1006.10
2022-11-07T15:21:01.616Z,1006.10
2022-11-07T15:36:01.628Z,1006.21
2022-11-07T15:51:02.617Z,1006.27
2022-11-07T15:56:01.922Z,1006.38
2022-11-07T16:11:01.918Z,1006.42
2022-11-07T16:26:01.512Z,1006.45
2022-11-07T16:41:01.333Z,1006.38
2022-11-07T16:56:02.077Z,1006.50
2022-11-07T17:11:01.805Z,1006.59
2022-11-07T17:26:02.492Z,1006.68
2022-11-07T17:41:01.729Z,1006.76
2022-11-07T17:56:01.640Z,1006.82
2022-11-07T18:11:02.687Z,1006.94
2022-11-07T18:26:01.985Z,1007.04
2022-11-07T18:41:02.315Z,1006.92
2022-11-07T18:56:01.691Z,1006.88
2022-11-07T19:11:02.191Z,1006.94
2022-11-07T19:26:01.558Z,1007.09
2022-11-07T19:41:02.348Z,1007.21
2022-11-07T19:51:01.596Z,1007.17
2022-11-07T20:01:03.107Z,1007.21
2022-11-07T20:16:01.598Z,1007.34
2022-11-07T20:31:01.594Z,1007.35
2022-11-07T20:46:02.484Z,1007.52
2022-11-07T21:01:17.739Z,1007.60
2022-11-07T21:16:01.801Z,1007.71
2022-11-07T21:31:01.664Z,1007.64
2022-11-07T21:41:01.521Z,1007.72
2022-11-07T21:56:01.666Z,1007.80
2022-11-07T22:11:01.638Z,1007.75
2022-11-07T22:16:01.698Z,1007.74
2022-11-07T22:31:06.664Z,1007.69
2022-11-07T22:41:08.061Z,1007.56
2022-11-07T22:56:01.925Z,1007.60
2022-11-07T23:06:01.898Z,1007.61
2022-11-07T23:21:01.635Z,1007.61
2022-11-07T23:36:03.118Z,1007.70
2022-11-07T23:51:02.183Z,1007.64
